createdAt,value
2019-06-27T00:02:30.999Z,99.90
2019-06-27T00:05:00.789Z,99.90
2019-06-27T00:07:30.655Z,99.90
2019-06-27T00:10:01.478Z,99.90
2019-06-27T00:12:33.675Z,99.90
2019-06-27T00:15:03.478Z,99.90
2019-06-27T00:17:33.304Z,99.90
2019-06-27T00:20:03.154Z,99.90
2019-06-27T00:22:32.905Z,99.90
2019-06-27T00:25:02.639Z,99.90
2019-06-27T00:27:32.493Z,99.90
2019-06-27T00:30:02.816Z,99.90
2019-06-27T00:32:32.623Z,99.90
2019-06-27T00:35:02.403Z,99.90
2019-06-27T00:37:32.244Z,99.90
2019-06-27T00:40:02.029Z,99.90
2019-06-27T00:42:31.747Z,99.90
2019-06-27T00:45:01.543Z,99.90
2019-06-27T00:47:34.378Z,99.90
2019-06-27T00:50:04.399Z,99.90
2019-06-27T00:52:34.172Z,99.90
2019-06-27T00:55:07.344Z,99.90
2019-06-27T00:57:37.256Z,99.90
2019-06-27T01:00:08.612Z,99.90
2019-06-27T01:02:40.698Z,99.90
2019-06-27T01:05:10.782Z,99.90
2019-06-27T01:07:47.115Z,99.90
2019-06-27T01:10:20.418Z,99.90
2019-06-27T01:12:50.180Z,99.90
2019-06-27T01:15:21.539Z,99.90
2019-06-27T01:17:54.602Z,99.90
2019-06-27T01:20:24.386Z,99.90
2019-06-27T01:22:54.156Z,99.90
2019-06-27T01:25:23.953Z,99.90
2019-06-27T01:27:54.775Z,99.90
2019-06-27T01:30:24.693Z,99.90
2019-06-27T01:32:54.556Z,99.70
2019-06-27T01:35:24.344Z,99.10
2019-06-27T01:37:54.127Z,98.50
2019-06-27T01:40:26.803Z,98.00
2019-06-27T01:42:56.668Z,97.50
2019-06-27T01:45:51.482Z,97.10
2019-06-27T01:48:24.288Z,96.70
2019-06-27T01:50:54.120Z,96.20
2019-06-27T01:53:30.366Z,96.00
2019-06-27T01:56:02.496Z,95.80
2019-06-27T01:58:38.221Z,95.50
2019-06-27T02:01:08.144Z,95.30
2019-06-27T02:03:37.944Z,95.20
2019-06-27T02:06:07.776Z,95.10
2019-06-27T02:08:37.576Z,95.10
2019-06-27T02:11:09.554Z,95.10
2019-06-27T02:13:39.259Z,95.10
2019-06-27T02:16:09.049Z,95.00
2019-06-27T02:18:38.837Z,95.00
2019-06-27T02:21:08.724Z,95.00
2019-06-27T02:23:38.460Z,95.00
2019-06-27T02:26:08.171Z,94.90
2019-06-27T02:28:37.984Z,94.90
2019-06-27T02:31:07.697Z,94.80
2019-06-27T02:33:37.428Z,94.80
2019-06-27T02:36:07.229Z,94.80
2019-06-27T02:38:37.040Z,94.70
2019-06-27T02:41:06.952Z,94.50
2019-06-27T02:43:36.887Z,94.30
2019-06-27T02:46:06.627Z,94.10
2019-06-27T02:48:36.379Z,94.00
2019-06-27T02:51:06.053Z,93.90
2019-06-27T02:53:35.892Z,93.80
2019-06-27T02:56:05.701Z,93.70
2019-06-27T02:58:35.445Z,93.70
2019-06-27T03:01:06.428Z,93.70
2019-06-27T03:03:36.245Z,93.70
2019-06-27T03:06:06.149Z,93.70
2019-06-27T03:08:35.947Z,93.80
2019-06-27T03:11:05.655Z,93.90
2019-06-27T03:13:35.420Z,93.90
2019-06-27T03:16:05.833Z,93.80
2019-06-27T03:18:35.537Z,93.90
2019-06-27T03:21:08.306Z,93.90
2019-06-27T03:23:38.116Z,94.00
2019-06-27T03:26:07.891Z,94.00
2019-06-27T03:28:51.562Z,94.20
2019-06-27T03:31:09.127Z,94.10
2019-06-27T03:33:38.920Z,94.00
2019-06-27T03:36:09.865Z,94.00
2019-06-27T03:38:39.910Z,94.00
2019-06-27T03:41:09.799Z,94.00
2019-06-27T03:43:39.613Z,94.00
2019-06-27T03:46:09.419Z,94.00
2019-06-27T03:48:39.174Z,94.00
2019-06-27T03:51:08.956Z,94.00
2019-06-27T03:53:38.743Z,94.10
2019-06-27T03:56:08.589Z,94.10
2019-06-27T03:58:38.428Z,94.10
2019-06-27T04:01:08.153Z,94.20
2019-06-27T04:03:42.689Z,94.20
2019-06-27T04:06:09.579Z,94.20
2019-06-27T04:08:39.354Z,94.30
2019-06-27T04:11:09.290Z,94.30
2019-06-27T04:13:39.061Z,94.40
2019-06-27T04:16:08.847Z,94.40
2019-06-27T04:18:41.984Z,94.40
2019-06-27T04:21:12.431Z,94.40
2019-06-27T04:23:42.232Z,94.50
2019-06-27T04:26:13.056Z,94.60
2019-06-27T04:28:42.883Z,94.40
2019-06-27T04:31:13.820Z,94.50
2019-06-27T04:33:43.564Z,94.60
2019-06-27T04:36:13.361Z,94.60
2019-06-27T04:38:43.076Z,94.70
2019-06-27T04:41:12.760Z,94.70
2019-06-27T04:43:44.174Z,94.80
2019-06-27T04:46:16.022Z,94.90
2019-06-27T04:48:45.829Z,94.90
2019-06-27T04:51:15.639Z,94.90
2019-06-27T04:53:53.971Z,95.10
2019-06-27T04:56:19.467Z,95.20
2019-06-27T04:58:49.265Z,95.20
2019-06-27T05:01:19.107Z,95.20
2019-06-27T05:03:48.934Z,95.60
2019-06-27T05:06:18.662Z,95.60
2019-06-27T05:08:48.473Z,95.40
2019-06-27T05:11:18.164Z,95.70
2019-06-27T05:13:47.870Z,95.70
2019-06-27T05:16:17.637Z,95.80
2019-06-27T05:19:14.006Z,95.70
2019-06-27T05:21:43.805Z,95.60
2019-06-27T05:24:13.680Z,95.90
2019-06-27T05:26:43.491Z,96.00
2019-06-27T05:29:14.590Z,95.60
2019-06-27T05:31:44.399Z,95.60
2019-06-27T05:34:14.163Z,95.60
2019-06-27T05:36:44.030Z,95.50
2019-06-27T05:39:13.778Z,95.50
2019-06-27T05:41:43.499Z,95.50
2019-06-27T05:44:13.187Z,95.30
2019-06-27T05:46:42.971Z,95.20
2019-06-27T05:49:12.766Z,94.90
2019-06-27T05:51:42.499Z,95.40
2019-06-27T05:54:12.530Z,94.90
2019-06-27T05:56:42.388Z,94.90
2019-06-27T05:59:12.168Z,94.90
2019-06-27T06:01:42.174Z,94.80
2019-06-27T06:04:11.947Z,94.70
2019-06-27T06:06:44.692Z,94.40
2019-06-27T06:09:15.514Z,94.40
2019-06-27T06:11:45.342Z,94.20
2019-06-27T06:14:15.289Z,94.00
2019-06-27T06:16:45.109Z,93.90
2019-06-27T06:19:17.610Z,93.80
2019-06-27T06:21:47.548Z,93.50
2019-06-27T06:24:17.688Z,93.50
2019-06-27T06:26:47.660Z,93.40
2019-06-27T06:29:17.519Z,93.10
2019-06-27T06:31:49.488Z,93.10
2019-06-27T06:34:19.028Z,93.00
2019-06-27T06:36:48.906Z,92.70
2019-06-27T06:39:19.038Z,92.50
2019-06-27T06:41:48.934Z,92.60
2019-06-27T06:44:18.868Z,92.20
2019-06-27T06:46:48.815Z,92.10
2019-06-27T06:49:18.736Z,92.10
2019-06-27T06:51:48.618Z,92.00
2019-06-27T06:54:18.547Z,91.80
2019-06-27T06:56:48.489Z,91.50
2019-06-27T06:59:18.434Z,91.20
2019-06-27T07:01:48.388Z,91.00
2019-06-27T07:04:18.312Z,91.00
2019-06-27T07:06:48.379Z,90.40
2019-06-27T07:09:18.267Z,89.80
2019-06-27T07:11:48.061Z,89.20
2019-06-27T07:14:17.924Z,88.20
2019-06-27T07:16:50.242Z,86.40
2019-06-27T07:19:20.207Z,84.30
2019-06-27T07:21:50.983Z,82.40
2019-06-27T07:24:21.025Z,81.40
2019-06-27T07:26:50.960Z,78.80
2019-06-27T07:29:20.902Z,76.70
2019-06-27T07:31:50.735Z,75.10
2019-06-27T07:34:20.734Z,71.40
2019-06-27T07:36:50.723Z,69.50
2019-06-27T07:39:20.688Z,67.40
2019-06-27T07:41:50.609Z,67.10
2019-06-27T07:44:20.745Z,66.20
2019-06-27T07:46:50.699Z,66.00
2019-06-27T07:49:20.592Z,65.30
2019-06-27T07:51:50.439Z,65.10
2019-06-27T07:54:20.383Z,64.80
2019-06-27T07:56:50.440Z,65.30
2019-06-27T07:59:20.387Z,65.40
2019-06-27T08:01:50.382Z,64.40
2019-06-27T08:04:20.182Z,63.70
2019-06-27T08:06:50.159Z,63.50
2019-06-27T08:09:20.155Z,63.90
2019-06-27T08:11:49.979Z,63.70
2019-06-27T08:14:21.097Z,63.50
2019-06-27T08:16:52.492Z,64.10
2019-06-27T08:19:22.405Z,64.00
2019-06-27T08:21:52.504Z,63.10
2019-06-27T08:24:22.425Z,61.30
2019-06-27T08:26:52.329Z,60.10
2019-06-27T08:29:22.259Z,59.40
2019-06-27T08:31:52.314Z,59.40
2019-06-27T08:34:22.308Z,58.60
2019-06-27T08:36:52.293Z,58.30
2019-06-27T08:39:22.277Z,57.90
2019-06-27T08:41:52.136Z,58.00
2019-06-27T08:44:22.124Z,58.10
2019-06-27T08:46:52.040Z,57.80
2019-06-27T08:49:21.975Z,57.30
2019-06-27T08:51:51.838Z,57.00
2019-06-27T08:54:21.737Z,57.10
2019-06-27T08:56:51.630Z,56.70
2019-06-27T08:59:21.558Z,56.50
2019-06-27T09:02:07.013Z,56.30
2019-06-27T09:04:23.131Z,56.60
2019-06-27T09:06:53.373Z,55.70
2019-06-27T09:09:23.286Z,55.00
2019-06-27T09:11:53.232Z,54.60
2019-06-27T09:14:23.160Z,55.00
2019-06-27T09:16:53.012Z,54.80
2019-06-27T09:19:22.929Z,55.20
2019-06-27T09:21:52.892Z,54.30
2019-06-27T09:24:22.893Z,54.00
2019-06-27T09:26:53.302Z,54.30
2019-06-27T09:29:23.315Z,53.60
2019-06-27T09:31:53.288Z,53.50
2019-06-27T09:34:23.286Z,53.60
2019-06-27T09:36:53.238Z,53.50
2019-06-27T09:39:26.863Z,53.40
2019-06-27T09:41:57.321Z,52.50
2019-06-27T09:44:27.233Z,52.00
2019-06-27T09:46:57.205Z,51.50
2019-06-27T09:49:27.382Z,52.00
2019-06-27T09:51:57.536Z,51.30
2019-06-27T09:54:27.553Z,51.30
2019-06-27T09:56:57.501Z,51.70
2019-06-27T09:59:27.480Z,51.90
2019-06-27T10:01:57.475Z,51.60
2019-06-27T10:04:27.505Z,51.30
2019-06-27T10:06:57.387Z,51.10
2019-06-27T10:09:27.381Z,52.80
2019-06-27T10:11:57.380Z,53.20
2019-06-27T10:14:28.141Z,53.90
2019-06-27T10:16:58.825Z,53.90
2019-06-27T10:19:28.847Z,54.20
2019-06-27T10:21:59.168Z,53.80
2019-06-27T10:24:29.335Z,51.90
2019-06-27T10:26:59.153Z,51.50
2019-06-27T10:29:30.372Z,50.90
2019-06-27T10:32:04.516Z,49.70
2019-06-27T10:34:33.056Z,49.00
2019-06-27T10:37:02.992Z,48.40
2019-06-27T10:39:32.913Z,48.40
2019-06-27T10:42:02.857Z,49.60
2019-06-27T10:44:32.772Z,48.70
2019-06-27T10:47:02.648Z,48.90
2019-06-27T10:49:33.331Z,49.10
2019-06-27T10:52:07.680Z,48.50
2019-06-27T10:54:37.607Z,47.70
2019-06-27T10:57:07.770Z,48.00
2019-06-27T10:59:40.218Z,47.80
2019-06-27T11:02:10.525Z,47.60
2019-06-27T11:04:40.672Z,47.30
2019-06-27T11:07:10.587Z,47.40
2019-06-27T11:09:40.403Z,47.70
2019-06-27T11:12:10.500Z,48.10
2019-06-27T11:14:40.722Z,48.40
2019-06-27T11:17:10.758Z,47.90
2019-06-27T11:19:52.023Z,47.20
2019-06-27T11:22:12.268Z,46.70
2019-06-27T11:24:42.816Z,46.40
2019-06-27T11:27:12.703Z,45.80
2019-06-27T11:29:42.694Z,46.00
2019-06-27T11:32:14.738Z,46.30
2019-06-27T11:34:44.741Z,46.80
2019-06-27T11:37:14.783Z,47.50
2019-06-27T11:39:44.711Z,47.20
2019-06-27T11:42:16.854Z,47.20
2019-06-27T11:44:46.956Z,47.10
2019-06-27T11:47:17.272Z,47.40
2019-06-27T11:49:50.557Z,46.10
2019-06-27T11:52:20.558Z,46.00
2019-06-27T11:54:50.608Z,45.40
2019-06-27T11:57:20.743Z,45.80
2019-06-27T11:59:50.875Z,46.10
2019-06-27T12:02:21.262Z,46.40
2019-06-27T12:04:51.332Z,46.60
2019-06-27T12:07:21.314Z,46.50
2019-06-27T12:09:51.436Z,47.70
2019-06-27T12:12:24.191Z,46.70
2019-06-27T12:14:54.193Z,46.90
2019-06-27T12:17:27.262Z,46.70
2019-06-27T12:19:58.586Z,46.50
2019-06-27T12:22:28.750Z,46.10
2019-06-27T12:24:59.467Z,45.90
2019-06-27T12:27:29.375Z,46.50
2019-06-27T12:29:59.307Z,46.60
2019-06-27T12:32:29.222Z,47.30
2019-06-27T12:34:59.126Z,48.00
2019-06-27T12:37:29.124Z,49.30
2019-06-27T12:39:59.165Z,49.60
2019-06-27T12:42:32.646Z,50.30
2019-06-27T12:45:00.847Z,50.50
2019-06-27T12:47:30.880Z,50.80
2019-06-27T12:50:02.995Z,50.80
2019-06-27T12:52:32.524Z,51.70
2019-06-27T12:55:02.470Z,50.60
2019-06-27T12:57:32.431Z,50.60
2019-06-27T13:00:03.796Z,51.10
2019-06-27T13:02:33.904Z,51.30
2019-06-27T13:05:05.035Z,50.90
2019-06-27T13:07:38.840Z,51.10
2019-06-27T13:10:10.154Z,50.80
2019-06-27T13:12:42.680Z,50.40
2019-06-27T13:15:12.879Z,50.70
2019-06-27T13:17:44.153Z,50.90
2019-06-27T13:20:15.483Z,51.80
2019-06-27T13:22:45.453Z,52.00
2019-06-27T13:25:15.629Z,51.90
2019-06-27T13:27:45.679Z,51.90
2019-06-27T13:30:15.695Z,52.10
2019-06-27T13:32:45.695Z,52.30
2019-06-27T13:35:15.722Z,52.50
2019-06-27T13:37:45.713Z,53.10
2019-06-27T13:40:16.541Z,53.50
2019-06-27T13:42:46.513Z,54.30
2019-06-27T13:45:16.604Z,55.20
2019-06-27T13:47:46.560Z,55.60
2019-06-27T13:50:16.891Z,56.00
2019-06-27T13:52:46.892Z,56.80
2019-06-27T13:55:17.308Z,56.60
2019-06-27T13:57:47.359Z,57.00
2019-06-27T14:00:18.773Z,57.50
2019-06-27T14:02:48.979Z,58.30
2019-06-27T14:05:18.840Z,57.90
2019-06-27T14:07:48.811Z,58.50
2019-06-27T14:10:18.687Z,58.30
2019-06-27T14:12:48.639Z,59.00
2019-06-27T14:15:18.802Z,58.00
2019-06-27T14:17:48.764Z,57.70
2019-06-27T14:20:18.868Z,57.80
2019-06-27T14:22:48.851Z,58.80
2019-06-27T14:25:18.807Z,57.40
2019-06-27T14:27:48.885Z,57.20
2019-06-27T14:30:20.387Z,57.50
2019-06-27T14:32:53.323Z,56.60
2019-06-27T14:35:21.842Z,56.80
2019-06-27T14:37:51.859Z,56.60
2019-06-27T14:40:21.985Z,56.30
2019-06-27T14:42:52.166Z,57.00
2019-06-27T14:45:22.192Z,57.40
2019-06-27T14:47:52.218Z,56.70
2019-06-27T14:50:22.230Z,57.40
2019-06-27T14:52:52.249Z,56.50
2019-06-27T14:55:32.240Z,57.30
2019-06-27T14:58:02.173Z,56.50
2019-06-27T15:00:32.660Z,56.40
2019-06-27T15:03:02.748Z,56.80
2019-06-27T15:05:33.719Z,56.80
2019-06-27T15:08:03.870Z,55.90
2019-06-27T15:10:33.838Z,56.20
2019-06-27T15:13:03.693Z,56.70
2019-06-27T15:15:33.512Z,55.90
2019-06-27T15:18:03.394Z,56.70
2019-06-27T15:20:34.689Z,56.00
2019-06-27T15:23:04.635Z,56.00
2019-06-27T15:25:34.542Z,56.50
2019-06-27T15:28:04.538Z,56.60
2019-06-27T15:30:34.730Z,56.20
2019-06-27T15:33:04.838Z,56.00
2019-06-27T15:35:50.930Z,55.10
2019-06-27T15:38:07.342Z,54.60
2019-06-27T15:40:37.192Z,54.60
2019-06-27T15:43:06.997Z,54.00
2019-06-27T15:45:37.067Z,54.40
2019-06-27T15:48:06.834Z,53.80
2019-06-27T15:50:37.694Z,53.70
2019-06-27T15:53:08.116Z,53.50
2019-06-27T15:55:38.091Z,54.10
2019-06-27T15:58:38.261Z,53.80
2019-06-27T16:01:54.417Z,53.60
2019-06-27T16:04:54.752Z,53.20
2019-06-27T16:13:44.275Z,53.20
2019-06-27T16:16:14.072Z,52.70
2019-06-27T16:18:44.773Z,53.10
2019-06-27T16:21:14.998Z,55.60
2019-06-27T16:23:47.356Z,54.70
2019-06-27T16:26:27.666Z,49.50
2019-06-27T16:29:20.637Z,51.50
2019-06-27T16:31:53.908Z,49.90
2019-06-27T16:34:31.340Z,50.00
2019-06-27T16:37:02.067Z,46.90
2019-06-27T16:39:32.184Z,48.20
2019-06-27T16:42:02.070Z,47.20
2019-06-27T16:44:31.916Z,45.10
2019-06-27T16:47:01.759Z,44.90
2019-06-27T16:49:31.702Z,45.30
2019-06-27T16:52:01.692Z,46.00
2019-06-27T16:54:31.534Z,45.00
2019-06-27T16:57:01.408Z,45.80
2019-06-27T16:59:31.225Z,45.60
2019-06-27T17:02:01.068Z,45.60
2019-06-27T17:04:30.958Z,45.70
2019-06-27T17:07:00.913Z,44.90
2019-06-27T17:09:30.720Z,45.80
2019-06-27T17:12:00.443Z,45.50
2019-06-27T17:14:30.301Z,44.90
2019-06-27T17:17:00.145Z,45.30
2019-06-27T17:19:30.009Z,44.10
2019-06-27T17:21:59.788Z,43.20
2019-06-27T17:24:29.698Z,43.60
2019-06-27T17:26:59.542Z,43.60
2019-06-27T17:29:29.300Z,42.70
2019-06-27T17:31:59.227Z,43.00
2019-06-27T17:34:29.158Z,43.00
2019-06-27T17:36:58.929Z,43.20
2019-06-27T17:39:28.820Z,42.40
2019-06-27T17:41:58.637Z,43.60
2019-06-27T17:44:28.467Z,43.50
2019-06-27T17:46:58.254Z,42.20
2019-06-27T17:49:28.068Z,42.60
2019-06-27T17:51:57.916Z,40.10
2019-06-27T17:54:27.658Z,39.50
2019-06-27T17:56:57.528Z,40.10
2019-06-27T17:59:27.391Z,40.60
2019-06-27T18:01:57.282Z,40.40
2019-06-27T18:04:27.089Z,41.50
2019-06-27T18:07:12.577Z,41.80
2019-06-27T18:09:28.451Z,41.10
2019-06-27T18:11:58.322Z,42.50
2019-06-27T18:14:28.176Z,39.10
2019-06-27T18:16:57.923Z,39.40
2019-06-27T18:19:27.726Z,37.80
2019-06-27T18:21:57.650Z,37.90
2019-06-27T18:24:27.510Z,37.00
2019-06-27T18:26:57.289Z,36.90
2019-06-27T18:29:27.054Z,37.80
2019-06-27T18:31:57.189Z,35.80
2019-06-27T18:34:27.133Z,37.20
2019-06-27T18:36:56.859Z,36.80
2019-06-27T18:39:26.729Z,35.30
2019-06-27T18:41:56.646Z,35.60
2019-06-27T18:44:26.502Z,35.30
2019-06-27T18:46:56.322Z,37.70
2019-06-27T18:49:27.194Z,35.10
2019-06-27T18:51:57.014Z,37.10
2019-06-27T18:54:26.759Z,35.60
2019-06-27T18:56:56.595Z,35.10
2019-06-27T18:59:26.373Z,36.10
2019-06-27T19:01:56.266Z,35.30
2019-06-27T19:04:26.107Z,36.40
2019-06-27T19:06:56.199Z,36.50
2019-06-27T19:09:26.113Z,35.50
2019-06-27T19:11:55.899Z,36.00
2019-06-27T19:14:25.698Z,36.60
2019-06-27T19:16:55.504Z,36.70
2019-06-27T19:19:28.078Z,37.40
2019-06-27T19:22:22.771Z,36.00
2019-06-27T19:25:11.986Z,36.70
2019-06-27T19:27:41.794Z,36.80
2019-06-27T19:30:11.818Z,37.10
2019-06-27T19:32:41.651Z,36.40
2019-06-27T19:35:11.497Z,36.00
2019-06-27T19:37:41.277Z,37.00
2019-06-27T19:40:11.574Z,37.00
2019-06-27T19:42:41.424Z,36.80
2019-06-27T19:45:11.435Z,37.20
2019-06-27T19:47:41.276Z,38.00
2019-06-27T19:50:11.561Z,38.00
2019-06-27T19:52:41.407Z,38.90
2019-06-27T19:55:11.362Z,37.40
2019-06-27T19:57:41.108Z,36.00
2019-06-27T20:00:11.151Z,35.50
2019-06-27T20:02:40.944Z,37.30
2019-06-27T20:05:10.904Z,35.90
2019-06-27T20:07:40.684Z,37.30
2019-06-27T20:10:11.880Z,35.80
2019-06-27T20:12:50.032Z,36.50
2019-06-27T20:15:23.261Z,36.30
2019-06-27T20:17:53.310Z,37.50
2019-06-27T20:20:23.399Z,36.80
2019-06-27T20:22:53.334Z,37.50
2019-06-27T20:25:24.278Z,35.50
2019-06-27T20:27:56.394Z,36.10
2019-06-27T20:30:28.111Z,35.60
2019-06-27T20:33:01.225Z,33.70
2019-06-27T20:35:32.730Z,34.80
2019-06-27T20:38:04.504Z,34.00
2019-06-27T20:40:34.343Z,33.50
2019-06-27T20:46:04.866Z,36.30
2019-06-27T20:51:35.468Z,37.30
2019-06-27T20:54:06.736Z,38.40
2019-06-27T20:56:36.678Z,40.10
2019-06-27T20:59:06.542Z,38.40
2019-06-27T21:01:36.557Z,38.60
2019-06-27T21:04:26.548Z,39.30
2019-06-27T21:07:45.244Z,41.10
2019-06-27T21:11:06.826Z,41.20
2019-06-27T21:14:25.505Z,40.40
2019-06-27T21:17:18.939Z,40.50
2019-06-27T21:51:31.276Z,42.20
2019-06-27T22:28:51.233Z,43.70
2019-06-27T22:34:32.580Z,43.30
2019-06-27T23:07:23.888Z,44.50
2019-06-27T23:15:49.775Z,45.00
2019-06-27T23:22:22.010Z,46.30
2019-06-27T23:25:04.626Z,46.80
2019-06-27T23:27:49.824Z,46.60
2019-06-27T23:30:52.298Z,45.90
2019-06-27T23:37:34.213Z,48.80
2019-06-27T23:43:55.491Z,48.40
2019-06-27T23:55:40.283Z,48.70
2019-06-27T23:58:51.270Z,48.90
